Alva, Florida
Current Conditions -  °F | °C
As of 6:53 PM on Sunday 23 Nov 2014 (Local Time) from KRSW Reporting Station
Few Clouds Few Clouds  
Wind Chill: 78°   Ceiling: Unl
Heat Index: 80°   Visibility: 10mi
Dew Point: 72°   Wind: 9mph
Humidity: 81%   Direction: 190°S
Pressure: 29.92"   Gusts: NA
Location:  26.72°N, 81.61°W
Report Text: KRSW 232353Z 19008KT 10SM FEW050 26/22 A2992 RMK AO2 SLP130 T02560222 10300 20256 52013
Loading
Personal Weather Stations






























Interactive Weather Map New forecast layout! Learn more

10-Day Weather Forecast

Advertisements
Track Severe Weather on mobile